Terminal Aerodrome Forecast
Issued by NWS Omaha/Valley, NE

Home | Current Version | Previous Version | Text Only | Print | Product List | Glossary Off
Versions: 1 2 3 4 5 6 7 8 9 10 11 12 13 14 15 16 17 18 19 20 21 22 23 24 25 26 27 28 29 30 31 32 33 34 35 36 37

000
FTUS43 KOAX 220521
TAFOFK
TAF
KOFK 220521Z 2206/2306 19006KT P6SM OVC012
      TEMPO 2208/2212 5SM BR SCT015
     FM221200 20010KT P6SM SCT250
      TEMPO 2301/2303 BKN015
     FM230300 19009KT 5SM BR OVC015=

USA.gov is the U.S. government's official web portal to all federal, state and local government web resources and services.